createdAt,value
2019-02-17T17:10:57.275Z,6.70
2019-02-17T17:13:30.983Z,6.70
2019-02-17T17:16:05.266Z,6.70
2019-02-17T17:18:39.753Z,6.90
2019-02-17T17:21:13.504Z,7.10
2019-02-17T17:23:47.078Z,7.30
2019-02-17T17:26:21.076Z,7.50
2019-02-17T17:28:55.593Z,7.70
2019-02-17T17:31:30.105Z,7.70
2019-02-17T17:34:03.849Z,7.70
2019-02-17T17:36:38.548Z,7.60
2019-02-17T17:39:12.228Z,7.60
2019-02-17T17:41:45.970Z,7.60
2019-02-17T17:44:19.845Z,7.50
2019-02-17T17:46:53.682Z,7.50
2019-02-17T17:49:27.441Z,7.50
2019-02-17T17:52:01.996Z,7.40
2019-02-17T17:54:35.743Z,7.40
2019-02-17T17:57:09.460Z,7.30
2019-02-17T17:59:43.258Z,7.40
2019-02-17T18:02:17.754Z,7.10
2019-02-17T18:04:51.458Z,7.10
2019-02-17T18:07:25.357Z,7.10
2019-02-17T18:09:59.176Z,7.00
2019-02-17T18:12:32.888Z,7.10
2019-02-17T18:15:06.672Z,7.00
2019-02-17T18:17:40.404Z,7.00
2019-02-17T18:20:14.217Z,7.00
2019-02-17T18:22:48.631Z,6.90
2019-02-17T18:25:22.233Z,6.90
2019-02-17T18:27:56.029Z,6.80
2019-02-17T18:30:30.428Z,6.70
2019-02-17T18:33:04.146Z,6.70
2019-02-17T18:35:37.836Z,6.70
2019-02-17T18:38:11.575Z,6.70
2019-02-17T18:40:47.887Z,6.60
2019-02-17T18:43:20.062Z,6.60
2019-02-17T18:45:53.831Z,6.50
2019-02-17T18:48:27.505Z,6.50
2019-02-17T18:51:01.332Z,6.40
2019-02-17T18:53:35.820Z,6.20
2019-02-17T18:56:10.350Z,6.10
2019-02-17T18:58:44.056Z,6.10
2019-02-17T19:01:17.848Z,6.00
2019-02-17T19:03:51.580Z,5.90
2019-02-17T19:06:26.181Z,5.80
2019-02-17T19:08:59.964Z,5.80
2019-02-17T19:11:33.809Z,5.80
2019-02-17T19:14:08.488Z,5.90
2019-02-17T19:16:42.164Z,5.90
2019-02-17T19:19:15.880Z,5.90
2019-02-17T19:21:50.440Z,5.90
2019-02-17T19:24:24.960Z,5.90
2019-02-17T19:26:58.714Z,5.90
2019-02-17T19:29:32.381Z,5.90
2019-02-17T19:32:06.118Z,5.80
2019-02-17T19:34:39.929Z,5.80
2019-02-17T19:37:13.713Z,5.70
2019-02-17T19:39:47.521Z,5.70
2019-02-17T19:42:21.313Z,5.70
2019-02-17T19:44:54.933Z,5.60
2019-02-17T19:47:29.637Z,5.30
2019-02-17T19:50:04.193Z,5.30
2019-02-17T19:52:37.883Z,5.30
2019-02-17T19:55:11.488Z,5.30
2019-02-17T19:57:46.080Z,5.30
2019-02-17T20:00:20.615Z,5.30
2019-02-17T20:02:54.360Z,5.30
2019-02-17T20:05:28.149Z,5.20
2019-02-17T20:08:02.654Z,5.10
2019-02-17T20:10:36.392Z,5.10
2019-02-17T20:13:10.170Z,5.00
2019-02-17T20:15:44.677Z,5.00
2019-02-17T20:18:19.200Z,4.90
2019-02-17T20:20:52.893Z,4.90
2019-02-17T20:23:26.697Z,4.90
2019-02-17T20:26:00.466Z,4.90
2019-02-17T20:28:43.035Z,5.00
2019-02-17T20:31:09.501Z,5.00
2019-02-17T20:33:43.279Z,4.90
2019-02-17T20:36:16.989Z,4.90
2019-02-17T20:38:50.829Z,4.80
2019-02-17T20:41:24.746Z,4.80
2019-02-17T20:43:59.310Z,4.80
2019-02-17T20:46:33.737Z,4.80
2019-02-17T20:49:07.457Z,4.70
2019-02-17T20:51:41.142Z,4.80
2019-02-17T20:54:15.020Z,4.70
2019-02-17T20:56:49.388Z,4.70
2019-02-17T20:59:23.114Z,4.70
2019-02-17T21:01:56.913Z,4.70
2019-02-17T21:04:31.505Z,4.60
2019-02-17T21:07:05.181Z,4.60
2019-02-17T21:09:39.065Z,4.50
2019-02-17T21:12:12.825Z,4.50
2019-02-17T21:14:46.595Z,4.60
2019-02-17T21:17:20.263Z,4.50
2019-02-17T21:19:53.834Z,4.30
2019-02-17T21:22:27.644Z,4.40
2019-02-17T21:25:02.319Z,4.40
2019-02-17T21:27:36.081Z,4.40
2019-02-17T21:30:12.777Z,4.50
2019-02-17T21:32:46.552Z,4.50
2019-02-17T21:35:20.216Z,4.40
2019-02-17T21:37:54.721Z,4.20
2019-02-17T21:40:28.685Z,4.20
2019-02-17T21:43:02.388Z,4.10
2019-02-17T21:45:36.133Z,4.00
2019-02-17T21:48:09.826Z,3.90
2019-02-17T21:50:43.733Z,4.00
2019-02-17T21:53:20.439Z,4.00
2019-02-17T21:55:51.277Z,3.90
2019-02-17T21:58:25.129Z,3.90
2019-02-17T22:00:59.657Z,3.70
2019-02-17T22:03:33.421Z,3.70
2019-02-17T22:06:07.197Z,3.80
2019-02-17T22:08:41.685Z,3.90
2019-02-17T22:11:16.225Z,3.90
2019-02-17T22:13:50.059Z,3.90
2019-02-17T22:16:24.532Z,3.90
2019-02-17T22:18:58.262Z,3.90
2019-02-17T22:21:32.094Z,3.70
2019-02-17T22:24:05.841Z,3.70
2019-02-17T22:26:39.572Z,3.70
2019-02-17T22:29:13.357Z,3.70
2019-02-17T22:31:47.891Z,3.50
2019-02-17T22:34:22.461Z,3.60
2019-02-17T22:36:56.137Z,3.50
2019-02-17T22:39:29.833Z,3.60
2019-02-17T22:42:03.777Z,3.60
2019-02-17T22:44:37.507Z,3.60
2019-02-17T22:47:11.328Z,3.40
2019-02-17T22:49:45.228Z,3.30
2019-02-17T22:52:19.070Z,3.20
2019-02-17T22:54:53.059Z,3.30
2019-02-17T22:57:26.709Z,3.30
2019-02-17T23:00:00.400Z,3.30
2019-02-17T23:02:34.109Z,3.20
2019-02-17T23:05:08.039Z,3.30
2019-02-17T23:07:42.497Z,3.10
2019-02-17T23:10:17.974Z,3.10
2019-02-17T23:12:51.581Z,3.10
2019-02-17T23:15:26.204Z,3.10
2019-02-17T23:17:59.854Z,3.10
2019-02-17T23:20:33.613Z,3.10
2019-02-17T23:23:07.488Z,3.10
2019-02-17T23:25:41.237Z,3.10
2019-02-17T23:28:15.057Z,3.00
2019-02-17T23:30:48.773Z,3.00
2019-02-17T23:33:22.552Z,3.10
2019-02-17T23:35:56.430Z,3.10
2019-02-17T23:38:30.055Z,3.10
2019-02-17T23:41:03.772Z,3.10
2019-02-17T23:43:37.645Z,3.10
2019-02-17T23:46:12.257Z,3.00
2019-02-17T23:48:46.045Z,3.00
2019-02-17T23:51:19.781Z,3.10
2019-02-17T23:53:53.404Z,2.90
2019-02-17T23:56:27.033Z,2.90
2019-02-17T23:59:00.821Z,2.90
